<?xml version="1.0" encoding="UTF-8" standalone="no" ?>
<gpx xmlns="http://www.topografix.com/GPX/1/1" creator="MapSource 6.15.3" version="1.1" xmlns:xsi="http://www.w3.org/2001/XMLSchema-instance" xsi:schemaLocation="http://www.topografix.com/GPX/1/1 http://www.topografix.com/GPX/1/1/gpx.xsd">

  <metadata>
    <link href="http://www.garmin.com">
      <text>Garmin International</text>
    </link>
    <time>2009-03-29T10:49:16Z</time>
    <bounds maxlat="43.7298205" maxlon="7.3653744" minlat="43.7218640" minlon="7.3569004"/>
  </metadata>

  <trk>
    <name>Nietzsche</name>
    <extensions>
      <gpxx:TrackExtension xmlns:gpxx="http://www.garmin.com/xmlschemas/GpxExtensions/v3">
        <gpxx:DisplayColor>Blue</gpxx:DisplayColor>
      </gpxx:TrackExtension>
    </extensions>
    <trkseg>
      <trkpt lat="43.7225607" lon="7.3569004">
        <ele>41.4739990</ele>
        <time>2009-03-22T08:45:27Z</time>
      </trkpt>
      <trkpt lat="43.7226048" lon="7.3569475">
        <ele>39.0706787</ele>
        <time>2009-03-22T08:48:42Z</time>
      </trkpt>
      <trkpt lat="43.7225768" lon="7.3569233">
        <ele>37.1480713</ele>
        <time>2009-03-22T08:51:54Z</time>
      </trkpt>
      <trkpt lat="43.7226150" lon="7.3569572">
        <ele>36.6674805</ele>
        <time>2009-03-22T08:55:59Z</time>
      </trkpt>
      <trkpt lat="43.7226151" lon="7.3569472">
        <ele>35.2254639</ele>
        <time>2009-03-22T09:03:48Z</time>
      </trkpt>
      <trkpt lat="43.7226933" lon="7.3570792">
        <ele>35.2254639</ele>
        <time>2009-03-22T09:04:20Z</time>
      </trkpt>
      <trkpt lat="43.7227347" lon="7.3572791">
        <ele>35.7060547</ele>
        <time>2009-03-22T09:04:50Z</time>
      </trkpt>
      <trkpt lat="43.7228145" lon="7.3575634">
        <ele>34.7448730</ele>
        <time>2009-03-22T09:05:09Z</time>
      </trkpt>
      <trkpt lat="43.7228770" lon="7.3578655">
        <ele>35.2254639</ele>
        <time>2009-03-22T09:05:28Z</time>
      </trkpt>
      <trkpt lat="43.7228749" lon="7.3581755">
        <ele>34.7448730</ele>
        <time>2009-03-22T09:05:50Z</time>
      </trkpt>
      <trkpt lat="43.7229315" lon="7.3585677">
        <ele>35.2254639</ele>
        <time>2009-03-22T09:06:19Z</time>
      </trkpt>
      <trkpt lat="43.7229522" lon="7.3587548">
        <ele>37.1480713</ele>
        <time>2009-03-22T09:06:35Z</time>
      </trkpt>
      <trkpt lat="43.7229640" lon="7.3590191">
        <ele>40.9934082</ele>
        <time>2009-03-22T09:06:53Z</time>
      </trkpt>
      <trkpt lat="43.7230321" lon="7.3592734">
        <ele>44.3580322</ele>
        <time>2009-03-22T09:07:11Z</time>
      </trkpt>
      <trkpt lat="43.7230376" lon="7.3592842">
        <ele>43.8773193</ele>
        <time>2009-03-22T09:07:12Z</time>
      </trkpt>
      <trkpt lat="43.7230893" lon="7.3593127">
        <ele>43.8773193</ele>
        <time>2009-03-22T09:07:15Z</time>
      </trkpt>
      <trkpt lat="43.7231243" lon="7.3592196">
        <ele>44.8386230</ele>
        <time>2009-03-22T09:07:24Z</time>
      </trkpt>
      <trkpt lat="43.7231667" lon="7.3590086">
        <ele>47.2418213</ele>
        <time>2009-03-22T09:07:42Z</time>
      </trkpt>
      <trkpt lat="43.7233549" lon="7.3590939">
        <ele>50.6065674</ele>
        <time>2009-03-22T09:08:01Z</time>
      </trkpt>
      <trkpt lat="43.7234101" lon="7.3592019">
        <ele>54.4517822</ele>
        <time>2009-03-22T09:08:13Z</time>
      </trkpt>
      <trkpt lat="43.7234343" lon="7.3591900">
        <ele>53.4904785</ele>
        <time>2009-03-22T09:08:14Z</time>
      </trkpt>
      <trkpt lat="43.7235337" lon="7.3591687">
        <ele>54.9323730</ele>
        <time>2009-03-22T09:08:24Z</time>
      </trkpt>
      <trkpt lat="43.7235478" lon="7.3591554">
        <ele>55.4130859</ele>
        <time>2009-03-22T09:08:26Z</time>
      </trkpt>
      <trkpt lat="43.7236759" lon="7.3591592">
        <ele>58.7777100</ele>
        <time>2009-03-22T09:08:41Z</time>
      </trkpt>
      <trkpt lat="43.7237837" lon="7.3590943">
        <ele>61.6617432</ele>
        <time>2009-03-22T09:08:57Z</time>
      </trkpt>
      <trkpt lat="43.7238431" lon="7.3590569">
        <ele>63.1036377</ele>
        <time>2009-03-22T09:09:04Z</time>
      </trkpt>
      <trkpt lat="43.7239319" lon="7.3589897">
        <ele>65.0263672</ele>
        <time>2009-03-22T09:09:14Z</time>
      </trkpt>
      <trkpt lat="43.7241207" lon="7.3589606">
        <ele>67.9102783</ele>
        <time>2009-03-22T09:09:35Z</time>
      </trkpt>
      <trkpt lat="43.7241598" lon="7.3589897">
        <ele>69.8328857</ele>
        <time>2009-03-22T09:09:47Z</time>
      </trkpt>
      <trkpt lat="43.7241512" lon="7.3590131">
        <ele>69.8328857</ele>
        <time>2009-03-22T09:09:49Z</time>
      </trkpt>
      <trkpt lat="43.7240244" lon="7.3591087">
        <ele>72.7169189</ele>
        <time>2009-03-22T09:10:10Z</time>
      </trkpt>
      <trkpt lat="43.7239640" lon="7.3591309">
        <ele>76.0814209</ele>
        <time>2009-03-22T09:10:27Z</time>
      </trkpt>
      <trkpt lat="43.7239008" lon="7.3593585">
        <ele>78.9654541</ele>
        <time>2009-03-22T09:10:48Z</time>
      </trkpt>
      <trkpt lat="43.7239374" lon="7.3593405">
        <ele>81.8493652</ele>
        <time>2009-03-22T09:11:05Z</time>
      </trkpt>
      <trkpt lat="43.7239769" lon="7.3595930">
        <ele>84.7333984</ele>
        <time>2009-03-22T09:11:26Z</time>
      </trkpt>
      <trkpt lat="43.7239991" lon="7.3597178">
        <ele>88.0980225</ele>
        <time>2009-03-22T09:11:43Z</time>
      </trkpt>
      <trkpt lat="43.7240533" lon="7.3596068">
        <ele>91.4625244</ele>
        <time>2009-03-22T09:11:59Z</time>
      </trkpt>
      <trkpt lat="43.7241059" lon="7.3596353">
        <ele>94.8271484</ele>
        <time>2009-03-22T09:12:21Z</time>
      </trkpt>
      <trkpt lat="43.7241367" lon="7.3596489">
        <ele>95.3077393</ele>
        <time>2009-03-22T09:12:47Z</time>
      </trkpt>
      <trkpt lat="43.7241564" lon="7.3597950">
        <ele>98.6724854</ele>
        <time>2009-03-22T09:13:28Z</time>
      </trkpt>
      <trkpt lat="43.7241783" lon="7.3598224">
        <ele>100.1145020</ele>
        <time>2009-03-22T09:13:31Z</time>
      </trkpt>
      <trkpt lat="43.7241709" lon="7.3599041">
        <ele>101.5563965</ele>
        <time>2009-03-22T09:13:41Z</time>
      </trkpt>
      <trkpt lat="43.7241686" lon="7.3599608">
        <ele>102.9982910</ele>
        <time>2009-03-22T09:13:47Z</time>
      </trkpt>
      <trkpt lat="43.7242436" lon="7.3600741">
        <ele>106.3630371</ele>
        <time>2009-03-22T09:14:08Z</time>
      </trkpt>
      <trkpt lat="43.7242842" lon="7.3601062">
        <ele>109.7276611</ele>
        <time>2009-03-22T09:14:27Z</time>
      </trkpt>
      <trkpt lat="43.7243178" lon="7.3601349">
        <ele>112.6115723</ele>
        <time>2009-03-22T09:14:45Z</time>
      </trkpt>
      <trkpt lat="43.7243567" lon="7.3601073">
        <ele>113.0922852</ele>
        <time>2009-03-22T09:14:48Z</time>
      </trkpt>
      <trkpt lat="43.7243735" lon="7.3601261">
        <ele>115.4956055</ele>
        <time>2009-03-22T09:15:08Z</time>
      </trkpt>
      <trkpt lat="43.7243626" lon="7.3601865">
        <ele>115.9761963</ele>
        <time>2009-03-22T09:15:38Z</time>
      </trkpt>
      <trkpt lat="43.7244256" lon="7.3602306">
        <ele>119.3408203</ele>
        <time>2009-03-22T09:15:53Z</time>
      </trkpt>
      <trkpt lat="43.7244403" lon="7.3603733">
        <ele>122.2247314</ele>
        <time>2009-03-22T09:16:10Z</time>
      </trkpt>
      <trkpt lat="43.7244516" lon="7.3604965">
        <ele>125.5893555</ele>
        <time>2009-03-22T09:16:27Z</time>
      </trkpt>
      <trkpt lat="43.7245029" lon="7.3606445">
        <ele>128.4733887</ele>
        <time>2009-03-22T09:16:44Z</time>
      </trkpt>
      <trkpt lat="43.7244835" lon="7.3607287">
        <ele>131.8378906</ele>
        <time>2009-03-22T09:17:04Z</time>
      </trkpt>
      <trkpt lat="43.7244923" lon="7.3607460">
        <ele>131.8378906</ele>
        <time>2009-03-22T09:17:05Z</time>
      </trkpt>
      <trkpt lat="43.7245140" lon="7.3609251">
        <ele>134.7219238</ele>
        <time>2009-03-22T09:17:31Z</time>
      </trkpt>
      <trkpt lat="43.7245302" lon="7.3611078">
        <ele>138.0865479</ele>
        <time>2009-03-22T09:17:50Z</time>
      </trkpt>
      <trkpt lat="43.7245442" lon="7.3611740">
        <ele>140.4898682</ele>
        <time>2009-03-22T09:18:10Z</time>
      </trkpt>
      <trkpt lat="43.7246110" lon="7.3611408">
        <ele>143.8543701</ele>
        <time>2009-03-22T09:18:33Z</time>
      </trkpt>
      <trkpt lat="43.7246156" lon="7.3612248">
        <ele>147.2189941</ele>
        <time>2009-03-22T09:18:53Z</time>
      </trkpt>
      <trkpt lat="43.7246782" lon="7.3611351">
        <ele>150.1030273</ele>
        <time>2009-03-22T09:19:12Z</time>
      </trkpt>
      <trkpt lat="43.7247126" lon="7.3612857">
        <ele>153.4676514</ele>
        <time>2009-03-22T09:19:29Z</time>
      </trkpt>
      <trkpt lat="43.7247308" lon="7.3613580">
        <ele>153.9483643</ele>
        <time>2009-03-22T09:20:07Z</time>
      </trkpt>
      <trkpt lat="43.7247565" lon="7.3615306">
        <ele>156.8321533</ele>
        <time>2009-03-22T09:20:56Z</time>
      </trkpt>
      <trkpt lat="43.7248020" lon="7.3617407">
        <ele>160.1968994</ele>
        <time>2009-03-22T09:21:18Z</time>
      </trkpt>
      <trkpt lat="43.7248769" lon="7.3619261">
        <ele>163.0808105</ele>
        <time>2009-03-22T09:21:40Z</time>
      </trkpt>
      <trkpt lat="43.7248840" lon="7.3621271">
        <ele>166.4453125</ele>
        <time>2009-03-22T09:22:00Z</time>
      </trkpt>
      <trkpt lat="43.7249062" lon="7.3622776">
        <ele>169.3294678</ele>
        <time>2009-03-22T09:22:19Z</time>
      </trkpt>
      <trkpt lat="43.7249203" lon="7.3624282">
        <ele>172.6939697</ele>
        <time>2009-03-22T09:22:39Z</time>
      </trkpt>
      <trkpt lat="43.7249492" lon="7.3625815">
        <ele>176.0585938</ele>
        <time>2009-03-22T09:23:09Z</time>
      </trkpt>
      <trkpt lat="43.7250352" lon="7.3625927">
        <ele>177.5006104</ele>
        <time>2009-03-22T09:23:35Z</time>
      </trkpt>
      <trkpt lat="43.7250050" lon="7.3627700">
        <ele>180.8652344</ele>
        <time>2009-03-22T09:23:58Z</time>
      </trkpt>
      <trkpt lat="43.7250567" lon="7.3629361">
        <ele>183.2684326</ele>
        <time>2009-03-22T09:24:24Z</time>
      </trkpt>
      <trkpt lat="43.7250328" lon="7.3630034">
        <ele>186.1524658</ele>
        <time>2009-03-22T09:24:41Z</time>
      </trkpt>
      <trkpt lat="43.7250305" lon="7.3631937">
        <ele>189.0363770</ele>
        <time>2009-03-22T09:25:06Z</time>
      </trkpt>
      <trkpt lat="43.7249831" lon="7.3632900">
        <ele>191.9202881</ele>
        <time>2009-03-22T09:25:28Z</time>
      </trkpt>
      <trkpt lat="43.7250107" lon="7.3634288">
        <ele>194.8043213</ele>
        <time>2009-03-22T09:25:54Z</time>
      </trkpt>
      <trkpt lat="43.7249659" lon="7.3634708">
        <ele>196.7269287</ele>
        <time>2009-03-22T09:26:03Z</time>
      </trkpt>
      <trkpt lat="43.7249495" lon="7.3637642">
        <ele>199.1301270</ele>
        <time>2009-03-22T09:26:36Z</time>
      </trkpt>
      <trkpt lat="43.7249422" lon="7.3638940">
        <ele>199.1301270</ele>
        <time>2009-03-22T09:26:45Z</time>
      </trkpt>
      <trkpt lat="43.7249034" lon="7.3641325">
        <ele>197.6882324</ele>
        <time>2009-03-22T09:27:03Z</time>
      </trkpt>
      <trkpt lat="43.7249085" lon="7.3641616">
        <ele>196.7269287</ele>
        <time>2009-03-22T09:27:05Z</time>
      </trkpt>
      <trkpt lat="43.7249075" lon="7.3644571">
        <ele>194.8043213</ele>
        <time>2009-03-22T09:27:24Z</time>
      </trkpt>
      <trkpt lat="43.7248741" lon="7.3647058">
        <ele>192.8817139</ele>
        <time>2009-03-22T09:27:43Z</time>
      </trkpt>
      <trkpt lat="43.7248368" lon="7.3649746">
        <ele>191.4395752</ele>
        <time>2009-03-22T09:28:04Z</time>
      </trkpt>
      <trkpt lat="43.7248698" lon="7.3650883">
        <ele>191.4395752</ele>
        <time>2009-03-22T09:28:17Z</time>
      </trkpt>
      <trkpt lat="43.7248796" lon="7.3651440">
        <ele>190.4783936</ele>
        <time>2009-03-22T09:28:24Z</time>
      </trkpt>
      <trkpt lat="43.7249622" lon="7.3652455">
        <ele>191.9202881</ele>
        <time>2009-03-22T09:28:35Z</time>
      </trkpt>
      <trkpt lat="43.7250694" lon="7.3653135">
        <ele>193.3623047</ele>
        <time>2009-03-22T09:28:51Z</time>
      </trkpt>
      <trkpt lat="43.7251104" lon="7.3653254">
        <ele>193.3623047</ele>
        <time>2009-03-22T09:28:54Z</time>
      </trkpt>
      <trkpt lat="43.7252751" lon="7.3652745">
        <ele>195.2849121</ele>
        <time>2009-03-22T09:29:17Z</time>
      </trkpt>
      <trkpt lat="43.7254144" lon="7.3651268">
        <ele>198.1689453</ele>
        <time>2009-03-22T09:29:43Z</time>
      </trkpt>
      <trkpt lat="43.7255249" lon="7.3649406">
        <ele>201.5335693</ele>
        <time>2009-03-22T09:30:04Z</time>
      </trkpt>
      <trkpt lat="43.7257285" lon="7.3648174">
        <ele>203.9368896</ele>
        <time>2009-03-22T09:30:34Z</time>
      </trkpt>
      <trkpt lat="43.7258430" lon="7.3646648">
        <ele>207.3013916</ele>
        <time>2009-03-22T09:30:55Z</time>
      </trkpt>
      <trkpt lat="43.7258821" lon="7.3645147">
        <ele>210.6660156</ele>
        <time>2009-03-22T09:31:15Z</time>
      </trkpt>
      <trkpt lat="43.7259751" lon="7.3644974">
        <ele>216.9146729</ele>
        <time>2009-03-22T09:31:54Z</time>
      </trkpt>
      <trkpt lat="43.7260236" lon="7.3644970">
        <ele>219.7985840</ele>
        <time>2009-03-22T09:32:09Z</time>
      </trkpt>
      <trkpt lat="43.7260940" lon="7.3644101">
        <ele>223.1632080</ele>
        <time>2009-03-22T09:32:28Z</time>
      </trkpt>
      <trkpt lat="43.7261814" lon="7.3643037">
        <ele>226.0471191</ele>
        <time>2009-03-22T09:32:51Z</time>
      </trkpt>
      <trkpt lat="43.7263169" lon="7.3642567">
        <ele>227.9697266</ele>
        <time>2009-03-22T09:33:13Z</time>
      </trkpt>
      <trkpt lat="43.7263492" lon="7.3641504">
        <ele>231.3343506</ele>
        <time>2009-03-22T09:33:32Z</time>
      </trkpt>
      <trkpt lat="43.7263937" lon="7.3641648">
        <ele>236.6217041</ele>
        <time>2009-03-22T09:34:27Z</time>
      </trkpt>
      <trkpt lat="43.7264929" lon="7.3641018">
        <ele>239.9862061</ele>
        <time>2009-03-22T09:34:47Z</time>
      </trkpt>
      <trkpt lat="43.7265338" lon="7.3640215">
        <ele>243.3508301</ele>
        <time>2009-03-22T09:35:09Z</time>
      </trkpt>
      <trkpt lat="43.7265080" lon="7.3639556">
        <ele>246.2348633</ele>
        <time>2009-03-22T09:35:27Z</time>
      </trkpt>
      <trkpt lat="43.7265825" lon="7.3639517">
        <ele>249.5994873</ele>
        <time>2009-03-22T09:35:43Z</time>
      </trkpt>
      <trkpt lat="43.7266537" lon="7.3640257">
        <ele>252.4833984</ele>
        <time>2009-03-22T09:36:01Z</time>
      </trkpt>
      <trkpt lat="43.7267752" lon="7.3640784">
        <ele>255.8480225</ele>
        <time>2009-03-22T09:36:20Z</time>
      </trkpt>
      <trkpt lat="43.7268814" lon="7.3640114">
        <ele>258.7319336</ele>
        <time>2009-03-22T09:36:40Z</time>
      </trkpt>
      <trkpt lat="43.7270050" lon="7.3640203">
        <ele>262.0965576</ele>
        <time>2009-03-22T09:37:00Z</time>
      </trkpt>
      <trkpt lat="43.7271071" lon="7.3640036">
        <ele>265.4613037</ele>
        <time>2009-03-22T09:37:21Z</time>
      </trkpt>
      <trkpt lat="43.7271948" lon="7.3640837">
        <ele>268.8258057</ele>
        <time>2009-03-22T09:37:40Z</time>
      </trkpt>
      <trkpt lat="43.7274683" lon="7.3642329">
        <ele>270.7484131</ele>
        <time>2009-03-22T09:38:09Z</time>
      </trkpt>
      <trkpt lat="43.7275377" lon="7.3644028">
        <ele>269.7871094</ele>
        <time>2009-03-22T09:38:39Z</time>
      </trkpt>
      <trkpt lat="43.7276759" lon="7.3645547">
        <ele>266.4224854</ele>
        <time>2009-03-22T09:40:19Z</time>
      </trkpt>
      <trkpt lat="43.7278055" lon="7.3646923">
        <ele>268.8258057</ele>
        <time>2009-03-22T09:40:40Z</time>
      </trkpt>
      <trkpt lat="43.7278179" lon="7.3646667">
        <ele>270.7484131</ele>
        <time>2009-03-22T09:40:44Z</time>
      </trkpt>
      <trkpt lat="43.7278818" lon="7.3645542">
        <ele>274.1130371</ele>
        <time>2009-03-22T09:41:02Z</time>
      </trkpt>
      <trkpt lat="43.7279244" lon="7.3644548">
        <ele>277.4776611</ele>
        <time>2009-03-22T09:41:16Z</time>
      </trkpt>
      <trkpt lat="43.7279951" lon="7.3643841">
        <ele>280.3616943</ele>
        <time>2009-03-22T09:41:34Z</time>
      </trkpt>
      <trkpt lat="43.7280361" lon="7.3644217">
        <ele>282.7650146</ele>
        <time>2009-03-22T09:41:45Z</time>
      </trkpt>
      <trkpt lat="43.7281033" lon="7.3644748">
        <ele>286.1295166</ele>
        <time>2009-03-22T09:42:03Z</time>
      </trkpt>
      <trkpt lat="43.7282433" lon="7.3646696">
        <ele>289.4941406</ele>
        <time>2009-03-22T09:42:26Z</time>
      </trkpt>
      <trkpt lat="43.7282060" lon="7.3644368">
        <ele>292.8587646</ele>
        <time>2009-03-22T09:42:49Z</time>
      </trkpt>
      <trkpt lat="43.7281702" lon="7.3641742">
        <ele>295.2619629</ele>
        <time>2009-03-22T09:43:18Z</time>
      </trkpt>
      <trkpt lat="43.7282430" lon="7.3642906">
        <ele>299.1072998</ele>
        <time>2009-03-22T09:43:36Z</time>
      </trkpt>
      <trkpt lat="43.7283251" lon="7.3644652">
        <ele>301.9913330</ele>
        <time>2009-03-22T09:43:57Z</time>
      </trkpt>
      <trkpt lat="43.7283707" lon="7.3645827">
        <ele>305.3559570</ele>
        <time>2009-03-22T09:44:19Z</time>
      </trkpt>
      <trkpt lat="43.7284108" lon="7.3645827">
        <ele>308.7204590</ele>
        <time>2009-03-22T09:44:41Z</time>
      </trkpt>
      <trkpt lat="43.7284824" lon="7.3644415">
        <ele>311.6044922</ele>
        <time>2009-03-22T09:45:03Z</time>
      </trkpt>
      <trkpt lat="43.7284661" lon="7.3643635">
        <ele>314.9691162</ele>
        <time>2009-03-22T09:45:24Z</time>
      </trkpt>
      <trkpt lat="43.7284686" lon="7.3642676">
        <ele>317.8530273</ele>
        <time>2009-03-22T09:45:39Z</time>
      </trkpt>
      <trkpt lat="43.7285434" lon="7.3642118">
        <ele>321.2177734</ele>
        <time>2009-03-22T09:46:03Z</time>
      </trkpt>
      <trkpt lat="43.7285551" lon="7.3641446">
        <ele>324.1015625</ele>
        <time>2009-03-22T09:46:22Z</time>
      </trkpt>
      <trkpt lat="43.7285437" lon="7.3640023">
        <ele>327.4661865</ele>
        <time>2009-03-22T09:46:44Z</time>
      </trkpt>
      <trkpt lat="43.7285851" lon="7.3639695">
        <ele>328.4276123</ele>
        <time>2009-03-22T09:46:56Z</time>
      </trkpt>
      <trkpt lat="43.7286617" lon="7.3638585">
        <ele>331.3115234</ele>
        <time>2009-03-22T09:47:16Z</time>
      </trkpt>
      <trkpt lat="43.7286930" lon="7.3637210">
        <ele>334.6761475</ele>
        <time>2009-03-22T09:47:41Z</time>
      </trkpt>
      <trkpt lat="43.7286986" lon="7.3637147">
        <ele>334.6761475</ele>
        <time>2009-03-22T09:47:42Z</time>
      </trkpt>
      <trkpt lat="43.7287837" lon="7.3635361">
        <ele>337.5600586</ele>
        <time>2009-03-22T09:48:04Z</time>
      </trkpt>
      <trkpt lat="43.7288297" lon="7.3633964">
        <ele>340.9246826</ele>
        <time>2009-03-22T09:48:26Z</time>
      </trkpt>
      <trkpt lat="43.7288411" lon="7.3632646">
        <ele>342.3666992</ele>
        <time>2009-03-22T09:48:49Z</time>
      </trkpt>
      <trkpt lat="43.7287296" lon="7.3633050">
        <ele>345.2506104</ele>
        <time>2009-03-22T09:49:18Z</time>
      </trkpt>
      <trkpt lat="43.7286024" lon="7.3632531">
        <ele>347.6539307</ele>
        <time>2009-03-22T09:49:44Z</time>
      </trkpt>
      <trkpt lat="43.7286290" lon="7.3631278">
        <ele>350.5378418</ele>
        <time>2009-03-22T09:50:03Z</time>
      </trkpt>
      <trkpt lat="43.7286494" lon="7.3630258">
        <ele>353.4218750</ele>
        <time>2009-03-22T09:50:26Z</time>
      </trkpt>
      <trkpt lat="43.7286437" lon="7.3629553">
        <ele>356.3057861</ele>
        <time>2009-03-22T09:50:46Z</time>
      </trkpt>
      <trkpt lat="43.7286654" lon="7.3628246">
        <ele>360.1511230</ele>
        <time>2009-03-22T09:51:07Z</time>
      </trkpt>
      <trkpt lat="43.7287352" lon="7.3626231">
        <ele>363.0350342</ele>
        <time>2009-03-22T09:51:31Z</time>
      </trkpt>
      <trkpt lat="43.7286696" lon="7.3625995">
        <ele>365.4383545</ele>
        <time>2009-03-22T09:51:57Z</time>
      </trkpt>
      <trkpt lat="43.7285977" lon="7.3626689">
        <ele>364.9576416</ele>
        <time>2009-03-22T09:52:12Z</time>
      </trkpt>
      <trkpt lat="43.7285607" lon="7.3627262">
        <ele>363.5157471</ele>
        <time>2009-03-22T09:52:16Z</time>
      </trkpt>
      <trkpt lat="43.7284691" lon="7.3627770">
        <ele>362.0737305</ele>
        <time>2009-03-22T09:52:35Z</time>
      </trkpt>
      <trkpt lat="43.7284582" lon="7.3626704">
        <ele>361.5931396</ele>
        <time>2009-03-22T09:53:51Z</time>
      </trkpt>
      <trkpt lat="43.7284837" lon="7.3627080">
        <ele>362.0737305</ele>
        <time>2009-03-22T09:54:58Z</time>
      </trkpt>
      <trkpt lat="43.7285172" lon="7.3627057">
        <ele>361.5931396</ele>
        <time>2009-03-22T09:56:27Z</time>
      </trkpt>
      <trkpt lat="43.7284846" lon="7.3627618">
        <ele>359.6704102</ele>
        <time>2009-03-22T10:11:00Z</time>
      </trkpt>
      <trkpt lat="43.7284450" lon="7.3627451">
        <ele>359.1896973</ele>
        <time>2009-03-22T10:21:21Z</time>
      </trkpt>
      <trkpt lat="43.7284212" lon="7.3626026">
        <ele>358.7089844</ele>
        <time>2009-03-22T10:24:38Z</time>
      </trkpt>
      <trkpt lat="43.7285604" lon="7.3627096">
        <ele>360.1511230</ele>
        <time>2009-03-22T10:25:36Z</time>
      </trkpt>
      <trkpt lat="43.7286530" lon="7.3625213">
        <ele>363.0350342</ele>
        <time>2009-03-22T10:26:01Z</time>
      </trkpt>
      <trkpt lat="43.7286757" lon="7.3623709">
        <ele>366.3995361</ele>
        <time>2009-03-22T10:26:20Z</time>
      </trkpt>
      <trkpt lat="43.7287215" lon="7.3621467">
        <ele>364.4769287</ele>
        <time>2009-03-22T10:26:54Z</time>
      </trkpt>
      <trkpt lat="43.7288432" lon="7.3621189">
        <ele>363.9963379</ele>
        <time>2009-03-22T10:27:22Z</time>
      </trkpt>
      <trkpt lat="43.7288934" lon="7.3620105">
        <ele>361.5931396</ele>
        <time>2009-03-22T10:27:42Z</time>
      </trkpt>
      <trkpt lat="43.7290263" lon="7.3618681">
        <ele>358.7089844</ele>
        <time>2009-03-22T10:27:58Z</time>
      </trkpt>
      <trkpt lat="43.7292926" lon="7.3617174">
        <ele>355.3444824</ele>
        <time>2009-03-22T10:28:18Z</time>
      </trkpt>
      <trkpt lat="43.7295692" lon="7.3617766">
        <ele>352.9411621</ele>
        <time>2009-03-22T10:28:45Z</time>
      </trkpt>
      <trkpt lat="43.7295808" lon="7.3617116">
        <ele>351.9798584</ele>
        <time>2009-03-22T10:29:15Z</time>
      </trkpt>
      <trkpt lat="43.7296201" lon="7.3616393">
        <ele>356.7863770</ele>
        <time>2009-03-22T10:54:17Z</time>
      </trkpt>
      <trkpt lat="43.7296594" lon="7.3615567">
        <ele>356.7863770</ele>
        <time>2009-03-22T10:54:41Z</time>
      </trkpt>
      <trkpt lat="43.7296231" lon="7.3616007">
        <ele>356.7863770</ele>
        <time>2009-03-22T10:54:58Z</time>
      </trkpt>
      <trkpt lat="43.7296794" lon="7.3617240">
        <ele>356.7863770</ele>
        <time>2009-03-22T10:55:15Z</time>
      </trkpt>
      <trkpt lat="43.7297147" lon="7.3618082">
        <ele>357.2670898</ele>
        <time>2009-03-22T10:55:44Z</time>
      </trkpt>
      <trkpt lat="43.7298205" lon="7.3617695">
        <ele>357.2670898</ele>
        <time>2009-03-22T10:55:58Z</time>
      </trkpt>
      <trkpt lat="43.7296821" lon="7.3616806">
        <ele>357.2670898</ele>
        <time>2009-03-22T10:56:23Z</time>
      </trkpt>
      <trkpt lat="43.7295901" lon="7.3616199">
        <ele>356.7863770</ele>
        <time>2009-03-22T11:05:31Z</time>
      </trkpt>
      <trkpt lat="43.7295510" lon="7.3617567">
        <ele>357.7478027</ele>
        <time>2009-03-22T11:08:19Z</time>
      </trkpt>
      <trkpt lat="43.7295095" lon="7.3617260">
        <ele>358.7089844</ele>
        <time>2009-03-22T11:08:44Z</time>
      </trkpt>
      <trkpt lat="43.7293860" lon="7.3617390">
        <ele>362.0737305</ele>
        <time>2009-03-22T11:10:11Z</time>
      </trkpt>
      <trkpt lat="43.7291391" lon="7.3616789">
        <ele>364.4769287</ele>
        <time>2009-03-22T11:10:35Z</time>
      </trkpt>
      <trkpt lat="43.7290250" lon="7.3618012">
        <ele>367.3609619</ele>
        <time>2009-03-22T11:11:01Z</time>
      </trkpt>
      <trkpt lat="43.7288712" lon="7.3620254">
        <ele>370.7255859</ele>
        <time>2009-03-22T11:11:29Z</time>
      </trkpt>
      <trkpt lat="43.7287035" lon="7.3622466">
        <ele>372.6481934</ele>
        <time>2009-03-22T11:12:04Z</time>
      </trkpt>
      <trkpt lat="43.7286965" lon="7.3625347">
        <ele>369.2836914</ele>
        <time>2009-03-22T11:12:37Z</time>
      </trkpt>
      <trkpt lat="43.7286042" lon="7.3627579">
        <ele>366.3995361</ele>
        <time>2009-03-22T11:12:57Z</time>
      </trkpt>
      <trkpt lat="43.7284859" lon="7.3628308">
        <ele>365.9189453</ele>
        <time>2009-03-22T11:13:20Z</time>
      </trkpt>
      <trkpt lat="43.7284060" lon="7.3628022">
        <ele>364.4769287</ele>
        <time>2009-03-22T11:14:15Z</time>
      </trkpt>
      <trkpt lat="43.7283842" lon="7.3627294">
        <ele>362.5543213</ele>
        <time>2009-03-22T11:22:34Z</time>
      </trkpt>
      <trkpt lat="43.7284123" lon="7.3627906">
        <ele>361.1124268</ele>
        <time>2009-03-22T11:30:15Z</time>
      </trkpt>
      <trkpt lat="43.7285792" lon="7.3627015">
        <ele>362.0737305</ele>
        <time>2009-03-22T11:52:42Z</time>
      </trkpt>
      <trkpt lat="43.7286615" lon="7.3625243">
        <ele>365.4383545</ele>
        <time>2009-03-22T11:53:28Z</time>
      </trkpt>
      <trkpt lat="43.7286746" lon="7.3622421">
        <ele>368.3222656</ele>
        <time>2009-03-22T11:54:04Z</time>
      </trkpt>
      <trkpt lat="43.7286468" lon="7.3621625">
        <ele>366.8802490</ele>
        <time>2009-03-22T11:55:14Z</time>
      </trkpt>
      <trkpt lat="43.7287097" lon="7.3620126">
        <ele>367.8415527</ele>
        <time>2009-03-22T12:01:20Z</time>
      </trkpt>
      <trkpt lat="43.7288022" lon="7.3617775">
        <ele>370.2448730</ele>
        <time>2009-03-22T12:01:48Z</time>
      </trkpt>
      <trkpt lat="43.7288115" lon="7.3616846">
        <ele>373.1289063</ele>
        <time>2009-03-22T12:02:18Z</time>
      </trkpt>
      <trkpt lat="43.7286218" lon="7.3620650">
        <ele>375.5321045</ele>
        <time>2009-03-22T12:03:06Z</time>
      </trkpt>
      <trkpt lat="43.7284956" lon="7.3621821">
        <ele>375.5321045</ele>
        <time>2009-03-22T12:03:52Z</time>
      </trkpt>
      <trkpt lat="43.7283629" lon="7.3621720">
        <ele>378.8968506</ele>
        <time>2009-03-22T12:04:31Z</time>
      </trkpt>
      <trkpt lat="43.7281301" lon="7.3621503">
        <ele>379.8580322</ele>
        <time>2009-03-22T12:05:01Z</time>
      </trkpt>
      <trkpt lat="43.7280765" lon="7.3620837">
        <ele>383.7032471</ele>
        <time>2009-03-22T12:05:20Z</time>
      </trkpt>
      <trkpt lat="43.7280679" lon="7.3620825">
        <ele>383.7032471</ele>
        <time>2009-03-22T12:05:21Z</time>
      </trkpt>
      <trkpt lat="43.7280765" lon="7.3620032">
        <ele>386.5874023</ele>
        <time>2009-03-22T12:05:46Z</time>
      </trkpt>
      <trkpt lat="43.7282200" lon="7.3619751">
        <ele>389.9519043</ele>
        <time>2009-03-22T12:06:12Z</time>
      </trkpt>
      <trkpt lat="43.7283272" lon="7.3618424">
        <ele>390.9132080</ele>
        <time>2009-03-22T12:06:50Z</time>
      </trkpt>
      <trkpt lat="43.7285532" lon="7.3615636">
        <ele>389.9519043</ele>
        <time>2009-03-22T12:07:40Z</time>
      </trkpt>
      <trkpt lat="43.7287259" lon="7.3615976">
        <ele>390.4326172</ele>
        <time>2009-03-22T12:09:10Z</time>
      </trkpt>
      <trkpt lat="43.7287236" lon="7.3615872">
        <ele>390.4326172</ele>
        <time>2009-03-22T12:10:00Z</time>
      </trkpt>
      <trkpt lat="43.7285621" lon="7.3617123">
        <ele>390.9132080</ele>
        <time>2009-03-22T12:11:30Z</time>
      </trkpt>
      <trkpt lat="43.7283068" lon="7.3616014">
        <ele>392.8359375</ele>
        <time>2009-03-22T12:12:09Z</time>
      </trkpt>
      <trkpt lat="43.7282101" lon="7.3618839">
        <ele>396.2005615</ele>
        <time>2009-03-22T12:12:35Z</time>
      </trkpt>
      <trkpt lat="43.7280635" lon="7.3618453">
        <ele>399.0843506</ele>
        <time>2009-03-22T12:12:59Z</time>
      </trkpt>
      <trkpt lat="43.7277928" lon="7.3615671">
        <ele>396.6811523</ele>
        <time>2009-03-22T12:13:54Z</time>
      </trkpt>
      <trkpt lat="43.7277417" lon="7.3614935">
        <ele>396.2005615</ele>
        <time>2009-03-22T12:14:35Z</time>
      </trkpt>
      <trkpt lat="43.7277876" lon="7.3610990">
        <ele>394.2779541</ele>
        <time>2009-03-22T12:15:26Z</time>
      </trkpt>
      <trkpt lat="43.7277176" lon="7.3611750">
        <ele>395.2391357</ele>
        <time>2009-03-22T12:16:51Z</time>
      </trkpt>
      <trkpt lat="43.7278080" lon="7.3613985">
        <ele>398.1231689</ele>
        <time>2009-03-22T12:17:23Z</time>
      </trkpt>
      <trkpt lat="43.7277714" lon="7.3615008">
        <ele>396.6811523</ele>
        <time>2009-03-22T12:18:12Z</time>
      </trkpt>
      <trkpt lat="43.7277280" lon="7.3616551">
        <ele>394.2779541</ele>
        <time>2009-03-22T12:19:20Z</time>
      </trkpt>
      <trkpt lat="43.7276471" lon="7.3617572">
        <ele>391.3937988</ele>
        <time>2009-03-22T12:19:56Z</time>
      </trkpt>
      <trkpt lat="43.7276305" lon="7.3618904">
        <ele>388.5100098</ele>
        <time>2009-03-22T12:20:17Z</time>
      </trkpt>
      <trkpt lat="43.7276895" lon="7.3620796">
        <ele>385.1453857</ele>
        <time>2009-03-22T12:20:41Z</time>
      </trkpt>
      <trkpt lat="43.7279073" lon="7.3622876">
        <ele>383.2226563</ele>
        <time>2009-03-22T12:21:13Z</time>
      </trkpt>
      <trkpt lat="43.7282292" lon="7.3623255">
        <ele>380.3387451</ele>
        <time>2009-03-22T12:21:57Z</time>
      </trkpt>
      <trkpt lat="43.7284808" lon="7.3622519">
        <ele>380.3387451</ele>
        <time>2009-03-22T12:22:27Z</time>
      </trkpt>
      <trkpt lat="43.7284929" lon="7.3622136">
        <ele>376.4935303</ele>
        <time>2009-03-22T12:24:35Z</time>
      </trkpt>
      <trkpt lat="43.7285688" lon="7.3622578">
        <ele>373.1289063</ele>
        <time>2009-03-22T12:25:23Z</time>
      </trkpt>
      <trkpt lat="43.7286380" lon="7.3621769">
        <ele>370.2448730</ele>
        <time>2009-03-22T12:25:56Z</time>
      </trkpt>
      <trkpt lat="43.7287264" lon="7.3624317">
        <ele>366.8802490</ele>
        <time>2009-03-22T12:26:40Z</time>
      </trkpt>
      <trkpt lat="43.7286939" lon="7.3625366">
        <ele>363.9963379</ele>
        <time>2009-03-22T12:27:11Z</time>
      </trkpt>
      <trkpt lat="43.7287085" lon="7.3627499">
        <ele>361.1124268</ele>
        <time>2009-03-22T12:27:35Z</time>
      </trkpt>
      <trkpt lat="43.7285964" lon="7.3628865">
        <ele>357.7478027</ele>
        <time>2009-03-22T12:27:51Z</time>
      </trkpt>
      <trkpt lat="43.7285655" lon="7.3629901">
        <ele>354.8637695</ele>
        <time>2009-03-22T12:28:12Z</time>
      </trkpt>
      <trkpt lat="43.7286191" lon="7.3631066">
        <ele>351.4991455</ele>
        <time>2009-03-22T12:28:34Z</time>
      </trkpt>
      <trkpt lat="43.7285997" lon="7.3632384">
        <ele>348.6152344</ele>
        <time>2009-03-22T12:28:55Z</time>
      </trkpt>
      <trkpt lat="43.7286167" lon="7.3633282">
        <ele>346.2120361</ele>
        <time>2009-03-22T12:29:15Z</time>
      </trkpt>
      <trkpt lat="43.7288006" lon="7.3633105">
        <ele>343.3278809</ele>
        <time>2009-03-22T12:29:43Z</time>
      </trkpt>
      <trkpt lat="43.7288796" lon="7.3633569">
        <ele>339.9633789</ele>
        <time>2009-03-22T12:30:03Z</time>
      </trkpt>
      <trkpt lat="43.7287709" lon="7.3635666">
        <ele>337.0794678</ele>
        <time>2009-03-22T12:30:27Z</time>
      </trkpt>
      <trkpt lat="43.7287119" lon="7.3637452">
        <ele>333.7147217</ele>
        <time>2009-03-22T12:30:47Z</time>
      </trkpt>
      <trkpt lat="43.7286183" lon="7.3638169">
        <ele>330.8309326</ele>
        <time>2009-03-22T12:31:07Z</time>
      </trkpt>
      <trkpt lat="43.7284028" lon="7.3639883">
        <ele>328.4276123</ele>
        <time>2009-03-22T12:31:38Z</time>
      </trkpt>
      <trkpt lat="43.7284604" lon="7.3640938">
        <ele>325.0629883</ele>
        <time>2009-03-22T12:31:53Z</time>
      </trkpt>
      <trkpt lat="43.7285300" lon="7.3641922">
        <ele>322.1789551</ele>
        <time>2009-03-22T12:32:07Z</time>
      </trkpt>
      <trkpt lat="43.7283873" lon="7.3642759">
        <ele>318.8143311</ele>
        <time>2009-03-22T12:32:21Z</time>
      </trkpt>
      <trkpt lat="43.7283883" lon="7.3643514">
        <ele>315.9304199</ele>
        <time>2009-03-22T12:32:44Z</time>
      </trkpt>
      <trkpt lat="43.7284241" lon="7.3644055">
        <ele>313.0465088</ele>
        <time>2009-03-22T12:33:03Z</time>
      </trkpt>
      <trkpt lat="43.7283920" lon="7.3645576">
        <ele>309.6818848</ele>
        <time>2009-03-22T12:33:26Z</time>
      </trkpt>
      <trkpt lat="43.7283363" lon="7.3645014">
        <ele>307.7592773</ele>
        <time>2009-03-22T12:33:35Z</time>
      </trkpt>
      <trkpt lat="43.7282672" lon="7.3644681">
        <ele>304.8752441</ele>
        <time>2009-03-22T12:33:55Z</time>
      </trkpt>
      <trkpt lat="43.7281725" lon="7.3643550">
        <ele>301.5106201</ele>
        <time>2009-03-22T12:34:15Z</time>
      </trkpt>
      <trkpt lat="43.7280812" lon="7.3642495">
        <ele>298.1461182</ele>
        <time>2009-03-22T12:34:36Z</time>
      </trkpt>
      <trkpt lat="43.7280535" lon="7.3643825">
        <ele>294.7813721</ele>
        <time>2009-03-22T12:34:57Z</time>
      </trkpt>
      <trkpt lat="43.7280292" lon="7.3644977">
        <ele>291.8974609</ele>
        <time>2009-03-22T12:35:15Z</time>
      </trkpt>
      <trkpt lat="43.7280050" lon="7.3644994">
        <ele>288.5329590</ele>
        <time>2009-03-22T12:35:31Z</time>
      </trkpt>
      <trkpt lat="43.7279986" lon="7.3644883">
        <ele>286.1295166</ele>
        <time>2009-03-22T12:35:42Z</time>
      </trkpt>
      <trkpt lat="43.7279231" lon="7.3645041">
        <ele>282.7650146</ele>
        <time>2009-03-22T12:35:58Z</time>
      </trkpt>
      <trkpt lat="43.7279301" lon="7.3644657">
        <ele>279.8808594</ele>
        <time>2009-03-22T12:36:12Z</time>
      </trkpt>
      <trkpt lat="43.7279032" lon="7.3644845">
        <ele>276.5163574</ele>
        <time>2009-03-22T12:36:26Z</time>
      </trkpt>
      <trkpt lat="43.7279138" lon="7.3645626">
        <ele>275.0744629</ele>
        <time>2009-03-22T12:36:32Z</time>
      </trkpt>
      <trkpt lat="43.7276575" lon="7.3647099">
        <ele>272.1904297</ele>
        <time>2009-03-22T12:36:58Z</time>
      </trkpt>
      <trkpt lat="43.7276465" lon="7.3645734">
        <ele>275.0744629</ele>
        <time>2009-03-22T12:37:15Z</time>
      </trkpt>
      <trkpt lat="43.7274256" lon="7.3643774">
        <ele>276.9970703</ele>
        <time>2009-03-22T12:37:46Z</time>
      </trkpt>
      <trkpt lat="43.7272243" lon="7.3641677">
        <ele>276.0356445</ele>
        <time>2009-03-22T12:38:12Z</time>
      </trkpt>
      <trkpt lat="43.7270668" lon="7.3641655">
        <ele>272.6711426</ele>
        <time>2009-03-22T12:38:30Z</time>
      </trkpt>
      <trkpt lat="43.7270244" lon="7.3641537">
        <ele>270.7484131</ele>
        <time>2009-03-22T12:38:36Z</time>
      </trkpt>
      <trkpt lat="43.7268850" lon="7.3641694">
        <ele>267.3839111</ele>
        <time>2009-03-22T12:38:55Z</time>
      </trkpt>
      <trkpt lat="43.7267458" lon="7.3642279">
        <ele>264.0192871</ele>
        <time>2009-03-22T12:39:18Z</time>
      </trkpt>
      <trkpt lat="43.7266731" lon="7.3641125">
        <ele>261.1352539</ele>
        <time>2009-03-22T12:39:35Z</time>
      </trkpt>
      <trkpt lat="43.7265255" lon="7.3641218">
        <ele>257.7707520</ele>
        <time>2009-03-22T12:39:57Z</time>
      </trkpt>
      <trkpt lat="43.7264450" lon="7.3641865">
        <ele>254.8865967</ele>
        <time>2009-03-22T12:40:14Z</time>
      </trkpt>
      <trkpt lat="43.7264214" lon="7.3642448">
        <ele>251.0413818</ele>
        <time>2009-03-22T12:40:34Z</time>
      </trkpt>
      <trkpt lat="43.7263861" lon="7.3643592">
        <ele>248.1575928</ele>
        <time>2009-03-22T12:40:59Z</time>
      </trkpt>
      <trkpt lat="43.7262451" lon="7.3644353">
        <ele>245.2734375</ele>
        <time>2009-03-22T12:41:20Z</time>
      </trkpt>
      <trkpt lat="43.7260749" lon="7.3645263">
        <ele>242.8702393</ele>
        <time>2009-03-22T12:41:43Z</time>
      </trkpt>
      <trkpt lat="43.7260542" lon="7.3645252">
        <ele>229.8923340</ele>
        <time>2009-03-22T12:43:11Z</time>
      </trkpt>
      <trkpt lat="43.7259493" lon="7.3645764">
        <ele>227.0085449</ele>
        <time>2009-03-22T12:43:27Z</time>
      </trkpt>
      <trkpt lat="43.7258813" lon="7.3646275">
        <ele>223.6437988</ele>
        <time>2009-03-22T12:43:38Z</time>
      </trkpt>
      <trkpt lat="43.7257815" lon="7.3646895">
        <ele>220.2791748</ele>
        <time>2009-03-22T12:44:00Z</time>
      </trkpt>
      <trkpt lat="43.7257471" lon="7.3646834">
        <ele>216.9146729</ele>
        <time>2009-03-22T12:44:15Z</time>
      </trkpt>
      <trkpt lat="43.7257610" lon="7.3648033">
        <ele>214.5112305</ele>
        <time>2009-03-22T12:44:27Z</time>
      </trkpt>
      <trkpt lat="43.7257419" lon="7.3648870">
        <ele>212.5886230</ele>
        <time>2009-03-22T12:44:50Z</time>
      </trkpt>
      <trkpt lat="43.7255057" lon="7.3650496">
        <ele>209.7048340</ele>
        <time>2009-03-22T12:45:16Z</time>
      </trkpt>
      <trkpt lat="43.7253836" lon="7.3651793">
        <ele>206.3400879</ele>
        <time>2009-03-22T12:45:33Z</time>
      </trkpt>
      <trkpt lat="43.7252700" lon="7.3653124">
        <ele>203.9368896</ele>
        <time>2009-03-22T12:45:58Z</time>
      </trkpt>
      <trkpt lat="43.7250110" lon="7.3653744">
        <ele>201.0528564</ele>
        <time>2009-03-22T12:46:24Z</time>
      </trkpt>
      <trkpt lat="43.7248358" lon="7.3651552">
        <ele>198.6495361</ele>
        <time>2009-03-22T12:46:50Z</time>
      </trkpt>
      <trkpt lat="43.7248180" lon="7.3649632">
        <ele>200.0916748</ele>
        <time>2009-03-22T12:47:16Z</time>
      </trkpt>
      <trkpt lat="43.7248200" lon="7.3649322">
        <ele>199.1301270</ele>
        <time>2009-03-22T12:48:49Z</time>
      </trkpt>
      <trkpt lat="43.7248513" lon="7.3647696">
        <ele>202.4948730</ele>
        <time>2009-03-22T12:49:56Z</time>
      </trkpt>
      <trkpt lat="43.7248988" lon="7.3646644">
        <ele>201.5335693</ele>
        <time>2009-03-22T12:50:29Z</time>
      </trkpt>
      <trkpt lat="43.7248744" lon="7.3645302">
        <ele>202.0142822</ele>
        <time>2009-03-22T12:51:06Z</time>
      </trkpt>
      <trkpt lat="43.7249059" lon="7.3643233">
        <ele>203.9368896</ele>
        <time>2009-03-22T12:51:28Z</time>
      </trkpt>
      <trkpt lat="43.7248948" lon="7.3640187">
        <ele>206.3400879</ele>
        <time>2009-03-22T12:51:56Z</time>
      </trkpt>
      <trkpt lat="43.7248767" lon="7.3639306">
        <ele>206.8206787</ele>
        <time>2009-03-22T12:52:03Z</time>
      </trkpt>
      <trkpt lat="43.7248508" lon="7.3637210">
        <ele>206.8206787</ele>
        <time>2009-03-22T12:52:19Z</time>
      </trkpt>
      <trkpt lat="43.7249097" lon="7.3635381">
        <ele>204.8980713</ele>
        <time>2009-03-22T12:52:43Z</time>
      </trkpt>
      <trkpt lat="43.7249272" lon="7.3634187">
        <ele>201.5335693</ele>
        <time>2009-03-22T12:52:58Z</time>
      </trkpt>
      <trkpt lat="43.7249378" lon="7.3633251">
        <ele>199.1301270</ele>
        <time>2009-03-22T12:53:24Z</time>
      </trkpt>
      <trkpt lat="43.7249161" lon="7.3632573">
        <ele>195.7656250</ele>
        <time>2009-03-22T12:53:39Z</time>
      </trkpt>
      <trkpt lat="43.7249270" lon="7.3631273">
        <ele>192.8817139</ele>
        <time>2009-03-22T12:54:05Z</time>
      </trkpt>
      <trkpt lat="43.7249412" lon="7.3629382">
        <ele>189.9976807</ele>
        <time>2009-03-22T12:54:22Z</time>
      </trkpt>
      <trkpt lat="43.7248963" lon="7.3628052">
        <ele>186.1524658</ele>
        <time>2009-03-22T12:54:44Z</time>
      </trkpt>
      <trkpt lat="43.7248978" lon="7.3628039">
        <ele>186.1524658</ele>
        <time>2009-03-22T12:54:45Z</time>
      </trkpt>
      <trkpt lat="43.7249708" lon="7.3625653">
        <ele>182.7878418</ele>
        <time>2009-03-22T12:55:11Z</time>
      </trkpt>
      <trkpt lat="43.7248527" lon="7.3625006">
        <ele>180.3845215</ele>
        <time>2009-03-22T12:55:35Z</time>
      </trkpt>
      <trkpt lat="43.7248345" lon="7.3623564">
        <ele>177.5006104</ele>
        <time>2009-03-22T12:55:48Z</time>
      </trkpt>
      <trkpt lat="43.7248393" lon="7.3621865">
        <ele>173.6552734</ele>
        <time>2009-03-22T12:56:11Z</time>
      </trkpt>
      <trkpt lat="43.7248745" lon="7.3620157">
        <ele>170.7713623</ele>
        <time>2009-03-22T12:56:35Z</time>
      </trkpt>
      <trkpt lat="43.7247704" lon="7.3619502">
        <ele>167.8873291</ele>
        <time>2009-03-22T12:56:55Z</time>
      </trkpt>
      <trkpt lat="43.7246942" lon="7.3617126">
        <ele>164.5227051</ele>
        <time>2009-03-22T12:57:21Z</time>
      </trkpt>
      <trkpt lat="43.7247236" lon="7.3614950">
        <ele>163.0808105</ele>
        <time>2009-03-22T12:57:46Z</time>
      </trkpt>
      <trkpt lat="43.7246224" lon="7.3613815">
        <ele>159.7161865</ele>
        <time>2009-03-22T12:58:12Z</time>
      </trkpt>
      <trkpt lat="43.7246753" lon="7.3613318">
        <ele>160.1968994</ele>
        <time>2009-03-22T12:58:42Z</time>
      </trkpt>
      <trkpt lat="43.7246884" lon="7.3611876">
        <ele>156.8321533</ele>
        <time>2009-03-22T12:59:31Z</time>
      </trkpt>
      <trkpt lat="43.7246433" lon="7.3611112">
        <ele>154.4289551</ele>
        <time>2009-03-22T12:59:58Z</time>
      </trkpt>
      <trkpt lat="43.7246166" lon="7.3611511">
        <ele>152.9869385</ele>
        <time>2009-03-22T13:00:05Z</time>
      </trkpt>
      <trkpt lat="43.7246039" lon="7.3611437">
        <ele>149.6223145</ele>
        <time>2009-03-22T13:00:32Z</time>
      </trkpt>
      <trkpt lat="43.7245705" lon="7.3611794">
        <ele>146.7384033</ele>
        <time>2009-03-22T13:00:58Z</time>
      </trkpt>
      <trkpt lat="43.7245353" lon="7.3610829">
        <ele>143.8543701</ele>
        <time>2009-03-22T13:01:25Z</time>
      </trkpt>
      <trkpt lat="43.7244912" lon="7.3610357">
        <ele>140.9704590</ele>
        <time>2009-03-22T13:01:51Z</time>
      </trkpt>
      <trkpt lat="43.7244965" lon="7.3609113">
        <ele>138.0865479</ele>
        <time>2009-03-22T13:02:21Z</time>
      </trkpt>
      <trkpt lat="43.7244897" lon="7.3606863">
        <ele>135.6831055</ele>
        <time>2009-03-22T13:02:45Z</time>
      </trkpt>
      <trkpt lat="43.7244421" lon="7.3605796">
        <ele>132.3186035</ele>
        <time>2009-03-22T13:03:06Z</time>
      </trkpt>
      <trkpt lat="43.7244206" lon="7.3604373">
        <ele>128.9541016</ele>
        <time>2009-03-22T13:03:25Z</time>
      </trkpt>
      <trkpt lat="43.7244064" lon="7.3602969">
        <ele>126.0699463</ele>
        <time>2009-03-22T13:03:49Z</time>
      </trkpt>
      <trkpt lat="43.7243372" lon="7.3601930">
        <ele>123.1861572</ele>
        <time>2009-03-22T13:04:11Z</time>
      </trkpt>
      <trkpt lat="43.7242492" lon="7.3600841">
        <ele>117.4182129</ele>
        <time>2009-03-22T13:04:54Z</time>
      </trkpt>
      <trkpt lat="43.7242271" lon="7.3601176">
        <ele>114.5341797</ele>
        <time>2009-03-22T13:05:17Z</time>
      </trkpt>
      <trkpt lat="43.7241717" lon="7.3601118">
        <ele>111.6502686</ele>
        <time>2009-03-22T13:05:36Z</time>
      </trkpt>
      <trkpt lat="43.7241417" lon="7.3600374">
        <ele>109.7276611</ele>
        <time>2009-03-22T13:05:49Z</time>
      </trkpt>
      <trkpt lat="43.7241346" lon="7.3599022">
        <ele>106.3630371</ele>
        <time>2009-03-22T13:06:09Z</time>
      </trkpt>
      <trkpt lat="43.7241281" lon="7.3597692">
        <ele>103.4790039</ele>
        <time>2009-03-22T13:06:29Z</time>
      </trkpt>
      <trkpt lat="43.7240976" lon="7.3596689">
        <ele>100.5950928</ele>
        <time>2009-03-22T13:06:53Z</time>
      </trkpt>
      <trkpt lat="43.7240836" lon="7.3595384">
        <ele>97.7111816</ele>
        <time>2009-03-22T13:07:09Z</time>
      </trkpt>
      <trkpt lat="43.7239904" lon="7.3596133">
        <ele>94.8271484</ele>
        <time>2009-03-22T13:07:26Z</time>
      </trkpt>
      <trkpt lat="43.7239010" lon="7.3596769">
        <ele>91.4625244</ele>
        <time>2009-03-22T13:07:47Z</time>
      </trkpt>
      <trkpt lat="43.7239337" lon="7.3595561">
        <ele>88.5787354</ele>
        <time>2009-03-22T13:08:05Z</time>
      </trkpt>
      <trkpt lat="43.7238842" lon="7.3593359">
        <ele>85.2139893</ele>
        <time>2009-03-22T13:08:20Z</time>
      </trkpt>
      <trkpt lat="43.7238338" lon="7.3593547">
        <ele>82.3300781</ele>
        <time>2009-03-22T13:08:47Z</time>
      </trkpt>
      <trkpt lat="43.7238298" lon="7.3592591">
        <ele>78.9654541</ele>
        <time>2009-03-22T13:09:06Z</time>
      </trkpt>
      <trkpt lat="43.7239089" lon="7.3590770">
        <ele>76.0814209</ele>
        <time>2009-03-22T13:09:27Z</time>
      </trkpt>
      <trkpt lat="43.7240610" lon="7.3588778">
        <ele>73.1976318</ele>
        <time>2009-03-22T13:09:50Z</time>
      </trkpt>
      <trkpt lat="43.7238790" lon="7.3589275">
        <ele>69.3522949</ele>
        <time>2009-03-22T13:10:11Z</time>
      </trkpt>
      <trkpt lat="43.7237288" lon="7.3590599">
        <ele>66.4682617</ele>
        <time>2009-03-22T13:10:31Z</time>
      </trkpt>
      <trkpt lat="43.7235931" lon="7.3590425">
        <ele>63.1036377</ele>
        <time>2009-03-22T13:10:47Z</time>
      </trkpt>
      <trkpt lat="43.7234097" lon="7.3590496">
        <ele>60.2197266</ele>
        <time>2009-03-22T13:11:03Z</time>
      </trkpt>
      <trkpt lat="43.7232842" lon="7.3591476">
        <ele>56.8551025</ele>
        <time>2009-03-22T13:11:19Z</time>
      </trkpt>
      <trkpt lat="43.7232788" lon="7.3590932">
        <ele>53.4904785</ele>
        <time>2009-03-22T13:11:32Z</time>
      </trkpt>
      <trkpt lat="43.7232634" lon="7.3590862">
        <ele>53.4904785</ele>
        <time>2009-03-22T13:11:33Z</time>
      </trkpt>
      <trkpt lat="43.7230631" lon="7.3590420">
        <ele>50.1259766</ele>
        <time>2009-03-22T13:12:01Z</time>
      </trkpt>
      <trkpt lat="43.7230475" lon="7.3592382">
        <ele>48.2033691</ele>
        <time>2009-03-22T13:12:15Z</time>
      </trkpt>
      <trkpt lat="43.7230469" lon="7.3592858">
        <ele>46.7612305</ele>
        <time>2009-03-22T13:12:26Z</time>
      </trkpt>
      <trkpt lat="43.7230136" lon="7.3589897">
        <ele>43.3966064</ele>
        <time>2009-03-22T13:12:45Z</time>
      </trkpt>
      <trkpt lat="43.7230179" lon="7.3587407">
        <ele>40.9934082</ele>
        <time>2009-03-22T13:13:03Z</time>
      </trkpt>
      <trkpt lat="43.7229489" lon="7.3585759">
        <ele>39.0706787</ele>
        <time>2009-03-22T13:13:17Z</time>
      </trkpt>
      <trkpt lat="43.7229351" lon="7.3585195">
        <ele>39.0706787</ele>
        <time>2009-03-22T13:13:21Z</time>
      </trkpt>
      <trkpt lat="43.7229031" lon="7.3583177">
        <ele>38.5900879</ele>
        <time>2009-03-22T13:13:42Z</time>
      </trkpt>
      <trkpt lat="43.7227708" lon="7.3583630">
        <ele>39.5512695</ele>
        <time>2009-03-22T13:14:03Z</time>
      </trkpt>
      <trkpt lat="43.7227580" lon="7.3584706">
        <ele>40.5128174</ele>
        <time>2009-03-22T13:14:12Z</time>
      </trkpt>
      <trkpt lat="43.7227970" lon="7.3585801">
        <ele>40.5128174</ele>
        <time>2009-03-22T13:14:39Z</time>
      </trkpt>
      <trkpt lat="43.7226293" lon="7.3585662">
        <ele>37.6286621</ele>
        <time>2009-03-22T13:15:00Z</time>
      </trkpt>
      <trkpt lat="43.7225251" lon="7.3584966">
        <ele>34.2641602</ele>
        <time>2009-03-22T13:15:18Z</time>
      </trkpt>
      <trkpt lat="43.7223891" lon="7.3584045">
        <ele>31.3801270</ele>
        <time>2009-03-22T13:15:37Z</time>
      </trkpt>
      <trkpt lat="43.7223405" lon="7.3583012">
        <ele>28.0155029</ele>
        <time>2009-03-22T13:15:53Z</time>
      </trkpt>
      <trkpt lat="43.7223007" lon="7.3581868">
        <ele>24.6510010</ele>
        <time>2009-03-22T13:16:12Z</time>
      </trkpt>
      <trkpt lat="43.7223035" lon="7.3579605">
        <ele>23.2089844</ele>
        <time>2009-03-22T13:16:40Z</time>
      </trkpt>
      <trkpt lat="43.7221034" lon="7.3579888">
        <ele>19.8443604</ele>
        <time>2009-03-22T13:17:13Z</time>
      </trkpt>
      <trkpt lat="43.7219917" lon="7.3580080">
        <ele>19.3637695</ele>
        <time>2009-03-22T13:17:18Z</time>
      </trkpt>
      <trkpt lat="43.7218640" lon="7.3579877">
        <ele>19.3637695</ele>
        <time>2009-03-22T13:17:48Z</time>
      </trkpt>
      <trkpt lat="43.7219308" lon="7.3579995">
        <ele>19.3637695</ele>
        <time>2009-03-22T13:17:54Z</time>
      </trkpt>
      <trkpt lat="43.7221481" lon="7.3579231">
        <ele>23.2089844</ele>
        <time>2009-03-22T13:18:16Z</time>
      </trkpt>
      <trkpt lat="43.7222878" lon="7.3580361">
        <ele>23.2089844</ele>
        <time>2009-03-22T13:18:43Z</time>
      </trkpt>
      <trkpt lat="43.7223176" lon="7.3581871">
        <ele>26.0928955</ele>
        <time>2009-03-22T13:19:02Z</time>
      </trkpt>
      <trkpt lat="43.7224063" lon="7.3583042">
        <ele>29.9381104</ele>
        <time>2009-03-22T13:19:25Z</time>
      </trkpt>
      <trkpt lat="43.7225170" lon="7.3583695">
        <ele>33.3028564</ele>
        <time>2009-03-22T13:19:48Z</time>
      </trkpt>
      <trkpt lat="43.7226221" lon="7.3585426">
        <ele>36.1867676</ele>
        <time>2009-03-22T13:20:11Z</time>
      </trkpt>
      <trkpt lat="43.7226996" lon="7.3586321">
        <ele>39.5512695</ele>
        <time>2009-03-22T13:20:31Z</time>
      </trkpt>
      <trkpt lat="43.7228191" lon="7.3585271">
        <ele>38.1093750</ele>
        <time>2009-03-22T13:20:52Z</time>
      </trkpt>
      <trkpt lat="43.7227493" lon="7.3582731">
        <ele>36.6674805</ele>
        <time>2009-03-22T13:21:09Z</time>
      </trkpt>
      <trkpt lat="43.7227534" lon="7.3580224">
        <ele>36.1867676</ele>
        <time>2009-03-22T13:21:32Z</time>
      </trkpt>
      <trkpt lat="43.7227241" lon="7.3578955">
        <ele>35.7060547</ele>
        <time>2009-03-22T13:21:42Z</time>
      </trkpt>
      <trkpt lat="43.7226731" lon="7.3576916">
        <ele>35.7060547</ele>
        <time>2009-03-22T13:22:05Z</time>
      </trkpt>
      <trkpt lat="43.7226523" lon="7.3573404">
        <ele>35.2254639</ele>
        <time>2009-03-22T13:22:32Z</time>
      </trkpt>
      <trkpt lat="43.7227369" lon="7.3573052">
        <ele>35.2254639</ele>
        <time>2009-03-22T13:23:06Z</time>
      </trkpt>
      <trkpt lat="43.7227572" lon="7.3573057">
        <ele>34.7448730</ele>
        <time>2009-03-22T13:25:49Z</time>
      </trkpt>
    </trkseg>
  </trk>

</gpx>
